createdAt,value
2022-08-01T00:01:15.484Z,59.14
2022-08-01T00:13:15.929Z,58.49
2022-08-01T00:25:16.399Z,58.19
2022-08-01T00:37:16.826Z,59.33
2022-08-01T00:49:17.377Z,59.04
2022-08-01T01:01:17.783Z,59.57
2022-08-01T01:13:18.157Z,59.59
2022-08-01T01:25:18.631Z,60.70
2022-08-01T01:37:19.130Z,58.79
2022-08-01T01:49:19.625Z,61.66
2022-08-01T02:01:58.897Z,59.75
2022-08-01T02:13:21.341Z,60.55
2022-08-01T02:25:20.924Z,64.68
2022-08-01T02:37:21.384Z,65.45
2022-08-01T02:49:21.912Z,68.74
2022-08-01T03:01:22.361Z,66.63
2022-08-01T03:13:22.745Z,69.86
2022-08-01T03:25:23.207Z,64.16
2022-08-01T03:37:23.643Z,62.84
2022-08-01T03:49:24.159Z,60.81
2022-08-01T04:01:24.622Z,62.11
2022-08-01T04:13:25.014Z,60.71
2022-08-01T04:25:25.472Z,63.48
2022-08-01T04:37:25.914Z,62.20
2022-08-01T04:49:26.523Z,66.94
2022-08-01T05:01:26.869Z,67.09
2022-08-01T05:13:27.316Z,64.70
2022-08-01T05:25:52.399Z,65.38
2022-08-01T05:37:28.211Z,64.96
2022-08-01T05:49:28.707Z,64.30
2022-08-01T06:01:29.064Z,63.77
2022-08-01T06:13:29.548Z,62.24
2022-08-01T06:25:30.033Z,60.20
2022-08-01T06:37:30.475Z,58.06
2022-08-01T06:49:30.965Z,57.23
2022-08-01T07:01:35.086Z,59.86
2022-08-01T07:13:36.739Z,59.27
2022-08-01T07:25:32.248Z,60.51
2022-08-01T07:37:47.166Z,58.46
2022-08-01T07:49:39.124Z,62.06
2022-08-01T08:01:33.733Z,58.98
2022-08-01T08:13:34.102Z,59.07
2022-08-01T08:25:34.578Z,58.45
2022-08-01T08:37:38.939Z,55.61
2022-08-01T08:49:36.483Z,52.12
2022-08-01T09:01:35.942Z,52.60
2022-08-01T09:13:36.379Z,53.06
2022-08-01T09:25:47.715Z,46.31
2022-08-01T09:37:37.733Z,34.84
2022-08-01T09:49:50.665Z,34.81
2022-08-01T10:01:38.706Z,33.59
2022-08-01T10:13:38.629Z,35.35
2022-08-01T10:25:43.107Z,35.78
2022-08-01T10:37:52.063Z,32.03
2022-08-01T10:49:40.030Z,32.19
2022-08-01T11:01:40.702Z,31.47
2022-08-01T11:13:40.972Z,30.28
2022-08-01T11:26:05.678Z,37.66
2022-08-01T11:37:41.811Z,33.63
2022-08-01T11:49:43.469Z,37.62
2022-08-01T12:01:42.781Z,39.77
2022-08-01T12:13:43.227Z,44.59
2022-08-01T12:25:43.663Z,40.20
2022-08-01T12:37:44.166Z,37.31
2022-08-01T12:49:44.641Z,36.59
2022-08-01T13:01:45.113Z,34.97
2022-08-01T13:13:45.503Z,40.64
2022-08-01T13:25:45.953Z,38.17
2022-08-01T13:37:46.452Z,31.46
2022-08-01T13:49:46.965Z,35.80
2022-08-01T14:01:47.500Z,41.97
2022-08-01T14:13:47.782Z,45.44
2022-08-01T14:26:03.045Z,51.19
2022-08-01T14:37:48.726Z,50.94
2022-08-01T14:49:49.187Z,49.09
2022-08-01T15:01:49.623Z,47.77
2022-08-01T15:13:50.117Z,48.32
2022-08-01T15:25:50.505Z,42.91
2022-08-01T15:37:50.991Z,38.98
2022-08-01T15:49:52.565Z,45.88
2022-08-01T16:01:52.005Z,46.11
2022-08-01T16:13:52.357Z,38.75
2022-08-01T16:25:52.833Z,39.36
2022-08-01T16:37:53.267Z,37.50
2022-08-01T16:49:53.735Z,36.61
2022-08-01T17:02:01.519Z,40.70
2022-08-01T17:13:54.659Z,43.98
2022-08-01T17:25:55.089Z,45.97
2022-08-01T17:37:55.595Z,47.13
2022-08-01T17:49:56.154Z,48.88
2022-08-01T18:01:56.530Z,47.76
2022-08-01T18:13:56.947Z,48.86
2022-08-01T18:25:57.417Z,50.29
2022-08-01T18:37:57.842Z,51.57
2022-08-01T18:49:58.322Z,56.17
2022-08-01T19:01:58.748Z,57.83
2022-08-01T19:13:59.246Z,58.58
2022-08-01T19:25:59.648Z,55.28
2022-08-01T19:38:00.111Z,56.66
2022-08-01T19:50:00.555Z,57.38
2022-08-01T20:02:01.077Z,58.22
2022-08-01T20:14:01.489Z,58.41
2022-08-01T20:26:01.940Z,58.40
2022-08-01T20:38:05.472Z,59.63
2022-08-01T20:50:02.905Z,59.81
2022-08-01T21:02:03.311Z,58.31
2022-08-01T21:14:03.772Z,57.88
2022-08-01T21:26:04.181Z,60.15
2022-08-01T21:38:04.691Z,61.17
2022-08-01T21:50:05.125Z,58.35
2022-08-01T22:02:05.602Z,58.55
2022-08-01T22:14:06.055Z,60.58
2022-08-01T22:26:06.509Z,60.51
2022-08-01T22:38:06.955Z,62.44
2022-08-01T22:50:07.405Z,61.76
2022-08-01T23:02:08.126Z,60.95
2022-08-01T23:14:08.319Z,61.90
2022-08-01T23:26:08.781Z,67.01
2022-08-01T23:38:09.213Z,69.29
2022-08-01T23:50:09.679Z,63.13
